Time;durP1;ratioP1;P1;durP2;ratioP2;P2;SDS_P1;SDS_P2;PMS_P1;PMS_P2;Temp;Humidity;BMP_temperature;BMP_pressure;BME280_temperature;BME280_humidity;BME280_pressure;Samples;Min_cycle;Max_cycle;Signal;HPM_P1;HPM_P2
2022/12/29 00:00:05;;;;;;;;;0.00;0.00;;;;;11.94;77.94;99862.19;5054523;28;45428;-63
2022/12/29 00:02:30;;;;;;;;;0.00;0.00;;;;;11.99;77.96;99850.56;5054502;28;45438;-63
2022/12/29 00:04:56;;;;;;;;;1.33;0.00;;;;;11.97;76.84;99841.88;5054306;28;45487;-63
2022/12/29 00:07:21;;;;;;;;;0.00;0.00;;;;;12.02;77.73;99851.25;5054398;28;45575;-62
2022/12/29 00:09:46;;;;;;;;;0.00;0.00;;;;;12.04;77.56;99848.53;5049890;28;47927;-63
2022/12/29 00:12:12;;;;;;;;;0.67;0.00;;;;;12.02;77.21;99847.75;5042035;28;45516;-63
2022/12/29 00:17:21;;;;;;;;;1.00;1.00;;;;;11.98;77.74;99831.25;5048214;28;45817;-63
2022/12/29 00:36:48;;;;;;;;;2.00;1.00;;;;;12.09;78.52;99817.47;5054168;28;45465;-63
2022/12/29 00:44:53;;;;;;;;;1.00;1.00;;;;;12.10;78.85;99813.94;5053812;28;45532;-63
2022/12/29 00:47:18;;;;;;;;;1.00;1.00;;;;;12.11;79.09;99821.75;5051629;28;45501;-63
2022/12/29 00:49:44;;;;;;;;;3.67;2.00;;;;;12.09;78.91;99836.81;5053588;28;45522;-63
2022/12/29 00:52:11;;;;;;;;;1.33;1.33;;;;;12.05;79.71;99813.34;5053813;28;45500;-63
2022/12/29 00:54:39;;;;;;;;;1.00;1.00;;;;;12.07;79.64;99829.91;5044521;28;45443;-63
2022/12/29 00:57:06;;;;;;;;;1.00;1.00;;;;;11.90;79.68;99799.19;5053750;28;45509;-63
2022/12/29 00:59:34;;;;;;;;;1.00;1.00;;;;;12.06;79.69;99836.09;5053194;28;46249;-63
2022/12/29 01:01:59;;;;;;;;;1.00;1.00;;;;;12.05;80.50;99821.22;5045521;28;45470;-63
2022/12/29 01:04:26;;;;;;;;;1.00;1.00;;;;;12.03;80.22;99823.09;5048465;28;45450;-63
2022/12/29 01:06:52;;;;;;;;;1.00;1.00;;;;;12.05;80.08;99813.34;5053746;28;45442;-63
2022/12/29 01:12:04;;;;;;;;;2.00;2.00;;;;;12.04;79.23;99814.28;5053553;28;45494;-62
2022/12/29 01:14:29;;;;;;;;;1.33;0.33;;;;;12.01;79.11;99804.75;5053687;28;45513;-63
2022/12/29 01:16:56;;;;;;;;;1.67;1.67;;;;;12.06;79.00;99802.72;5049299;28;45791;-63
2022/12/29 01:19:21;;;;;;;;;4.00;2.00;;;;;12.08;79.36;99815.78;5039572;28;45546;-63
2022/12/29 01:21:47;;;;;;;;;1.33;1.33;;;;;12.05;79.19;99814.19;5053268;28;45477;-63
2022/12/29 01:24:14;;;;;;;;;1.00;1.00;;;;;12.12;78.70;99819.97;5053356;28;45511;-63
2022/12/29 01:26:39;;;;;;;;;2.00;2.00;;;;;12.12;79.21;99812.91;5053427;28;45594;-63
2022/12/29 01:29:04;;;;;;;;;0.67;0.67;;;;;12.09;79.50;99807.81;5050463;28;46536;-64
2022/12/29 01:31:30;;;;;;;;;1.00;1.00;;;;;12.17;79.50;99828.50;5044835;28;45438;-63
2022/12/29 01:33:55;;;;;;;;;2.00;1.00;;;;;12.12;78.60;99826.09;5040711;28;46008;-63
2022/12/29 01:36:20;;;;;;;;;0.67;0.67;;;;;12.12;79.35;99810.28;5042451;28;45639;-63
2022/12/29 01:38:46;;;;;;;;;1.33;0.00;;;;;12.12;78.78;99817.34;5052435;28;45539;-63
2022/12/29 01:41:14;;;;;;;;;1.00;1.00;;;;;12.14;78.81;99818.09;5044188;28;45668;-63
2022/12/29 01:43:42;;;;;;;;;0.00;0.00;;;;;12.12;79.47;99825.25;5056947;28;45357;-63
2022/12/29 01:46:25;;;;;;;;;2.00;0.00;;;;;12.14;78.71;99826.88;5056618;28;45474;-63
2022/12/29 01:48:55;;;;;;;;;0.67;0.00;;;;;12.14;79.09;99836.53;5041938;28;46575;-63
2022/12/29 01:51:23;;;;;;;;;0.00;0.00;;;;;12.13;78.79;99840.97;5056084;28;45420;-63
2022/12/29 01:53:48;;;;;;;;;2.00;0.00;;;;;12.13;78.89;99840.13;5053247;28;45452;-63
2022/12/29 01:56:18;;;;;;;;;2.00;0.67;;;;;12.08;79.33;99832.44;5055022;28;45503;-63
2022/12/29 01:58:47;;;;;;;;;0.00;0.00;;;;;12.08;78.63;99821.91;5056322;28;45569;-63
2022/12/29 02:01:13;;;;;;;;;0.00;0.00;;;;;12.15;78.82;99830.34;5056273;28;45561;-63
2022/12/29 02:03:39;;;;;;;;;1.00;1.00;;;;;12.13;78.70;99827.78;5056206;28;45550;-63
2022/12/29 02:06:33;;;;;;;;;0.00;0.00;;;;;12.16;78.59;99845.22;5041939;28;45675;-63
2022/12/29 02:08:59;;;;;;;;;0.00;0.00;;;;;12.16;78.67;99845.22;5054775;28;45551;-63
2022/12/29 02:11:28;;;;;;;;;0.00;0.00;;;;;12.18;78.80;99850.44;5055931;28;45502;-63
2022/12/29 02:13:53;;;;;;;;;2.00;0.00;;;;;12.13;79.37;99855.94;5056329;28;45499;-63
2022/12/29 02:16:40;;;;;;;;;0.00;0.00;;;;;12.15;79.15;99878.66;5054538;28;45489;-63
2022/12/29 02:19:27;;;;;;;;;0.00;0.00;;;;;12.07;79.15;99866.81;5055995;28;45572;-63
2022/12/29 02:21:56;;;;;;;;;0.00;0.00;;;;;12.02;78.44;99847.75;5055774;28;45563;-63
2022/12/29 02:24:30;;;;;;;;;0.00;0.00;;;;;11.96;79.15;99848.09;5047579;28;45628;-64
2022/12/29 02:27:21;;;;;;;;;0.33;0.33;;;;;11.89;78.36;99837.84;5055391;28;45489;-63
2022/12/29 02:30:17;;;;;;;;;0.00;0.00;;;;;11.85;78.14;99838.09;5054306;28;46620;-63
2022/12/29 02:32:48;;;;;;;;;0.00;0.00;;;;;11.78;78.23;99818.25;5049751;28;45477;-63
2022/12/29 02:35:28;;;;;;;;;0.00;0.00;;;;;11.73;78.27;99824.59;5055764;28;45494;-64
2022/12/29 02:38:21;;;;;;;;;0.00;0.00;;;;;11.67;77.43;99824.94;5055866;28;45522;-63
2022/12/29 02:41:15;;;;;;;;;0.00;0.00;;;;;11.63;78.23;99828.69;5055419;28;45458;-63
2022/12/29 02:43:59;;;;;;;;;0.00;0.00;;;;;11.61;77.98;99827.06;5055359;28;45541;-63
2022/12/29 02:46:37;;;;;;;;;0.00;0.00;;;;;11.64;76.99;99819.84;5055957;28;45502;-63
2022/12/29 02:49:12;;;;;;;;;0.00;0.00;;;;;11.57;76.80;99807.06;5050459;28;45584;-63
2022/12/29 02:52:00;;;;;;;;;0.00;0.00;;;;;11.57;76.85;99800.00;5047115;28;45800;-63
2022/12/29 02:54:41;;;;;;;;;0.00;0.00;;;;;11.59;76.63;99806.06;5055573;28;45542;-63
2022/12/29 02:57:22;;;;;;;;;0.00;0.00;;;;;11.57;76.12;99807.91;5055468;28;45423;-63
2022/12/29 02:59:53;;;;;;;;;0.00;0.00;;;;;11.60;76.15;99813.00;5053940;28;45487;-63
2022/12/29 03:02:35;;;;;;;;;1.00;0.00;;;;;11.53;74.90;99805.53;5054931;28;45459;-63
2022/12/29 03:05:12;;;;;;;;;0.00;0.00;;;;;11.62;75.73;99815.56;5055447;28;45416;-63
2022/12/29 03:08:14;;;;;;;;;0.67;0.00;;;;;11.58;75.12;99788.56;5055248;28;45596;-63
2022/12/29 03:10:51;;;;;;;;;0.00;0.00;;;;;11.59;74.52;99808.69;5051057;28;45566;-63
2022/12/29 03:16:12;;;;;;;;;0.00;0.00;;;;;11.62;74.89;99795.34;5052814;28;45387;-63
2022/12/29 03:18:57;;;;;;;;;1.67;0.67;;;;;11.63;75.22;99801.47;5055224;28;45572;-63
2022/12/29 03:24:32;;;;;;;;;0.00;0.00;;;;;11.59;73.50;99798.16;5054865;28;45496;-63
2022/12/29 03:27:00;;;;;;;;;0.00;0.00;;;;;11.62;74.34;99805.88;5046079;28;45516;-63
2022/12/29 03:29:29;;;;;;;;;0.00;0.00;;;;;11.60;73.69;99807.75;5049997;28;45428;-64
2022/12/29 03:31:57;;;;;;;;;0.00;0.00;;;;;11.57;73.45;99815.81;5055153;28;45540;-64
2022/12/29 03:34:24;;;;;;;;;0.00;0.00;;;;;11.47;73.96;99804.91;5054704;28;45534;-63
2022/12/29 03:37:08;;;;;;;;;0.00;0.00;;;;;11.54;74.43;99815.13;5054848;28;45481;-64
2022/12/29 03:39:33;;;;;;;;;1.00;0.00;;;;;11.56;73.48;99815.91;5044238;28;45610;-64
2022/12/29 03:42:04;;;;;;;;;0.33;0.00;;;;;11.54;73.53;99813.34;5049004;28;45621;-64
2022/12/29 03:44:36;;;;;;;;;0.00;0.00;;;;;11.57;74.15;99820.22;5054643;28;46596;-64
2022/12/29 03:47:03;;;;;;;;;0.33;0.33;;;;;11.55;73.87;99822.09;5054238;28;46194;-63
2022/12/29 03:49:28;;;;;;;;;0.00;0.00;;;;;11.58;73.83;99829.81;5053369;28;45596;-63
2022/12/29 03:51:54;;;;;;;;;0.00;0.00;;;;;11.59;73.37;99824.47;5053730;28;45612;-64
2022/12/29 03:54:19;;;;;;;;;0.00;0.00;;;;;11.59;73.28;99826.28;5040005;28;46316;-63
2022/12/29 03:56:44;;;;;;;;;0.00;0.00;;;;;11.62;73.32;99826.97;5054583;28;45521;-63
2022/12/29 03:59:09;;;;;;;;;0.00;0.00;;;;;11.64;72.96;99834.78;5054442;28;45530;-63
2022/12/29 04:01:35;;;;;;;;;0.00;0.00;;;;;11.64;73.29;99822.47;5054644;28;45517;-63
2022/12/29 04:04:00;;;;;;;;;0.00;0.00;;;;;11.67;73.46;99835.47;5054215;28;45457;-63
2022/12/29 04:06:26;;;;;;;;;0.00;0.00;;;;;11.66;73.49;99831.16;5054470;28;45423;-63
2022/12/29 04:08:51;;;;;;;;;0.00;0.00;;;;;11.67;73.99;99824.94;5053292;28;45501;-63
2022/12/29 04:11:16;;;;;;;;;0.00;0.00;;;;;11.69;73.70;99838.88;5051888;28;45446;-63
2022/12/29 04:13:41;;;;;;;;;1.00;0.00;;;;;11.61;72.86;99822.63;5043319;28;46337;-64
2022/12/29 04:16:08;;;;;;;;;0.00;0.00;;;;;11.68;72.98;99841.59;5051657;28;45496;-63
2022/12/29 04:18:33;;;;;;;;;1.00;0.00;;;;;11.68;73.80;99833.69;5054417;28;45453;-64
2022/12/29 04:21:02;;;;;;;;;0.00;0.00;;;;;11.69;73.25;99841.53;5054107;28;45599;-63
2022/12/29 04:23:29;;;;;;;;;0.67;0.00;;;;;11.66;73.29;99844.31;5053226;28;45685;-63
2022/12/29 04:25:55;;;;;;;;;0.00;0.00;;;;;11.69;73.26;99848.56;5069395;27;45485;-63
2022/12/29 04:28:20;;;;;;;;;0.00;0.00;;;;;11.68;73.14;99855.59;5054002;28;45498;-63
2022/12/29 04:30:47;;;;;;;;;0.00;0.00;;;;;11.73;73.65;99868.53;5054290;28;45541;-63
2022/12/29 04:33:12;;;;;;;;;0.00;0.00;;;;;11.72;73.23;99872.13;5052564;28;45546;-63
2022/12/29 04:35:38;;;;;;;;;0.50;0.00;;;;;11.69;73.48;99872.28;5052546;28;45528;-63
2022/12/29 04:38:03;;;;;;;;;0.00;0.00;;;;;11.74;73.58;99878.16;5053963;28;45517;-64
2022/12/29 04:40:28;;;;;;;;;0.00;0.00;;;;;11.74;72.82;99865.00;5051904;28;45580;-64
2022/12/29 04:42:54;;;;;;;;;0.00;0.00;;;;;11.76;73.18;99854.38;5053839;28;45533;-64
2022/12/29 04:45:20;;;;;;;;;0.00;0.00;;;;;11.71;73.08;99871.28;5053707;28;45505;-64
2022/12/29 04:47:45;;;;;;;;;0.67;0.67;;;;;11.70;73.02;99871.34;5054022;28;45517;-63
2022/12/29 04:50:10;;;;;;;;;0.00;0.00;;;;;11.71;73.06;99884.44;5053657;28;45543;-64
2022/12/29 04:52:36;;;;;;;;;0.67;0.00;;;;;11.70;72.38;99876.59;5053686;28;45576;-64
2022/12/29 04:55:02;;;;;;;;;0.00;0.00;;;;;11.70;73.13;99861.66;5052111;28;45556;-64
2022/12/29 04:57:28;;;;;;;;;1.67;0.00;;;;;11.73;72.21;99885.19;5053821;28;46038;-63
2022/12/29 04:59:53;;;;;;;;;0.33;0.00;;;;;11.73;72.48;99882.56;5053812;28;45411;-63
2022/12/29 05:02:19;;;;;;;;;2.00;1.00;;;;;11.71;73.25;99884.44;5053334;28;45472;-64
2022/12/29 05:04:45;;;;;;;;;0.67;0.67;;;;;11.67;72.79;99888.16;5057351;28;45526;-63
2022/12/29 05:07:11;;;;;;;;;0.67;0.00;;;;;11.66;72.53;99891.72;5057348;28;45519;-63
2022/12/29 05:09:36;;;;;;;;;0.33;0.33;;;;;11.68;72.28;99900.38;5053331;28;45652;-64
2022/12/29 05:12:02;;;;;;;;;1.33;0.00;;;;;11.75;73.20;99915.91;5057080;28;46045;-63
2022/12/29 05:14:27;;;;;;;;;0.67;0.33;;;;;11.73;72.41;99908.06;5056943;28;45484;-64
2022/12/29 05:16:52;;;;;;;;;0.00;0.00;;;;;11.72;72.54;99901.94;5057417;28;45761;-64
2022/12/29 05:19:18;;;;;;;;;0.00;0.00;;;;;11.74;72.84;99904.50;5056956;28;45699;-63
2022/12/29 05:21:43;;;;;;;;;0.00;0.00;;;;;11.72;71.92;99906.38;5056936;28;46627;-64
2022/12/29 05:24:09;;;;;;;;;0.00;0.00;;;;;11.68;72.07;99905.66;5055342;28;45433;-64
2022/12/29 05:26:34;;;;;;;;;0.00;0.00;;;;;11.66;71.69;99896.13;5057160;28;45536;-64
2022/12/29 05:28:59;;;;;;;;;1.33;1.33;;;;;11.68;70.23;99900.38;5049689;28;45621;-63
2022/12/29 05:31:25;;;;;;;;;1.00;1.00;;;;;11.67;71.15;99908.38;5054109;28;45508;-64
2022/12/29 05:33:51;;;;;;;;;0.00;0.00;;;;;11.55;70.11;99893.19;5056878;28;45463;-64
2022/12/29 05:36:16;;;;;;;;;0.00;0.00;;;;;11.63;69.94;99914.72;5054403;28;45738;-63
2022/12/29 05:38:41;;;;;;;;;0.33;0.00;;;;;11.62;70.05;99910.38;5053226;28;45368;-64
2022/12/29 05:41:07;;;;;;;;;1.67;1.00;;;;;11.65;70.13;99918.13;5045767;28;45562;-64
2022/12/29 05:43:32;;;;;;;;;1.00;0.67;;;;;11.61;69.00;99914.81;5056439;28;45426;-64
2022/12/29 05:45:57;;;;;;;;;0.00;0.00;;;;;11.58;69.56;99903.56;5056832;28;45389;-63
2022/12/29 05:48:23;;;;;;;;;1.00;1.00;;;;;11.58;69.03;99914.97;5056810;28;45667;-64
2022/12/29 05:50:49;;;;;;;;;0.00;0.00;;;;;11.61;69.49;99920.09;5053307;28;45514;-63
2022/12/29 05:53:15;;;;;;;;;3.00;0.00;;;;;11.60;68.83;99913.09;5047892;28;45438;-64
2022/12/29 05:55:40;;;;;;;;;0.00;0.00;;;;;11.61;69.20;99929.78;5055182;28;45438;-63
2022/12/29 05:58:05;;;;;;;;;3.00;0.00;;;;;11.57;68.85;99915.88;5056508;28;45605;-64
2022/12/29 06:00:31;;;;;;;;;0.67;0.67;;;;;11.55;68.11;99930.91;5053240;28;47918;-63
2022/12/29 06:02:57;;;;;;;;;0.67;0.00;;;;;11.49;68.60;99928.59;5043067;28;45509;-64
2022/12/29 06:05:22;;;;;;;;;0.67;0.67;;;;;11.49;69.31;99931.22;5056491;28;45477;-64
2022/12/29 06:07:47;;;;;;;;;1.00;1.00;;;;;11.53;69.07;99951.22;5056196;28;45480;-63
2022/12/29 06:10:13;;;;;;;;;0.00;0.00;;;;;11.57;69.09;99957.16;5056209;28;45518;-63
2022/12/29 06:12:38;;;;;;;;;0.67;0.67;;;;;11.54;68.92;99965.22;5055996;28;45523;-64
2022/12/29 06:15:04;;;;;;;;;0.00;0.00;;;;;11.50;68.90;99938.22;5054977;28;45450;-63
2022/12/29 06:17:29;;;;;;;;;1.00;0.33;;;;;11.53;69.00;99948.59;5051375;28;45524;-64
2022/12/29 06:19:55;;;;;;;;;1.00;0.00;;;;;11.53;68.07;99953.84;5054517;28;45513;-64
2022/12/29 06:22:20;;;;;;;;;2.33;1.00;;;;;11.53;68.63;99959.13;5056014;28;45442;-63
2022/12/29 06:24:45;;;;;;;;;0.33;0.33;;;;;11.54;68.85;99965.22;5056067;28;45407;-63
2022/12/29 06:27:11;;;;;;;;;2.00;0.00;;;;;11.51;68.87;99968.88;5056356;28;45434;-63
2022/12/29 06:29:36;;;;;;;;;0.00;0.00;;;;;11.52;68.71;99962.66;5042650;28;46216;-63
2022/12/29 06:32:03;;;;;;;;;0.00;0.00;;;;;11.50;69.49;99960.13;5045251;28;45562;-63
2022/12/29 06:34:28;;;;;;;;;0.00;0.00;;;;;11.48;68.60;99955.84;5055839;28;45445;-63
2022/12/29 06:36:54;;;;;;;;;0.00;0.00;;;;;11.45;69.43;99971.81;5055777;28;45491;-63
2022/12/29 06:39:19;;;;;;;;;1.00;1.00;;;;;11.45;69.59;99977.91;5047146;28;46166;-63
2022/12/29 06:41:45;;;;;;;;;2.00;0.00;;;;;11.45;68.72;99990.25;5048613;28;45517;-64
2022/12/29 06:44:10;;;;;;;;;0.67;0.67;;;;;11.40;69.12;99979.94;5055756;28;45425;-64
2022/12/29 06:46:35;;;;;;;;;1.00;1.00;;;;;11.46;69.45;100002.47;5053319;28;45535;-63
2022/12/29 06:49:01;;;;;;;;;0.00;0.00;;;;;11.44;68.62;100002.53;5055479;28;45525;-63
2022/12/29 06:51:26;;;;;;;;;0.00;0.00;;;;;11.38;69.14;99997.56;5055204;28;45616;-63
2022/12/29 06:53:51;;;;;;;;;1.67;0.00;;;;;11.45;69.52;100013.94;5055560;28;45535;-63
2022/12/29 06:56:17;;;;;;;;;0.67;0.00;;;;;11.45;69.02;100014.78;5055721;28;45464;-63
2022/12/29 06:58:42;;;;;;;;;2.00;1.00;;;;;11.48;70.09;100026.94;5043823;28;46080;-64
2022/12/29 07:01:07;;;;;;;;;2.00;2.00;;;;;11.46;69.58;100029.66;5044465;28;45602;-63
2022/12/29 07:03:33;;;;;;;;;1.00;1.00;;;;;11.47;69.42;100033.13;5047972;28;45557;-63
2022/12/29 07:05:58;;;;;;;;;0.33;0.33;;;;;11.44;70.17;100044.66;5047880;28;46152;-63
2022/12/29 07:08:24;;;;;;;;;0.33;0.33;;;;;11.44;69.79;100038.53;5038647;28;45429;-63
2022/12/29 07:10:49;;;;;;;;;3.67;1.33;;;;;11.43;69.63;100029.81;5046991;28;45662;-63
2022/12/29 07:13:15;;;;;;;;;0.33;0.33;;;;;11.45;69.89;100029.75;5048318;28;45426;-64
2022/12/29 07:15:40;;;;;;;;;1.00;1.00;;;;;11.36;69.16;100004.69;5050317;28;45506;-63
2022/12/29 07:18:05;;;;;;;;;0.00;0.00;;;;;11.37;69.60;100010.81;5054731;28;45840;-62
2022/12/29 07:20:31;;;;;;;;;1.00;1.00;;;;;11.38;69.01;100023.06;5053596;28;45941;-64
2022/12/29 07:22:57;;;;;;;;;2.00;1.33;;;;;11.42;69.58;100029.88;5055078;28;45419;-63
2022/12/29 07:25:23;;;;;;;;;1.33;1.33;;;;;11.42;69.93;100041.28;5049899;28;45481;-63
2022/12/29 07:27:48;;;;;;;;;0.00;0.00;;;;;11.44;69.84;100035.91;5051602;28;47407;-64
2022/12/29 07:30:14;;;;;;;;;1.00;0.67;;;;;11.45;69.99;100048.16;5043401;28;45537;-64
2022/12/29 07:32:39;;;;;;;;;2.00;1.00;;;;;11.39;68.84;100030.88;5054942;28;45571;-64
2022/12/29 07:35:05;;;;;;;;;0.00;0.00;;;;;11.45;70.14;100048.16;5054896;28;45440;-64
2022/12/29 07:37:30;;;;;;;;;2.00;1.33;;;;;11.47;70.03;100054.19;5052713;28;46225;-63
2022/12/29 07:39:56;;;;;;;;;2.00;1.00;;;;;11.43;68.92;100048.22;5038165;28;45420;-63
2022/12/29 07:42:21;;;;;;;;;2.33;1.00;;;;;11.41;69.58;100060.59;5052522;28;45525;-63
2022/12/29 07:44:46;;;;;;;;;1.00;1.00;;;;;11.43;69.00;100068.44;5054924;28;45545;-63
2022/12/29 07:47:12;;;;;;;;;2.67;2.00;;;;;11.40;68.79;100063.34;5048198;28;46118;-64
2022/12/29 07:49:37;;;;;;;;;1.00;1.00;;;;;11.37;69.10;100069.59;5050581;28;45498;-63
2022/12/29 07:52:03;;;;;;;;;1.00;0.00;;;;;11.40;69.33;100073.88;5054447;28;45461;-63
2022/12/29 07:54:28;;;;;;;;;1.00;1.00;;;;;11.35;68.74;100083.75;5048423;28;45475;-64
2022/12/29 07:56:53;;;;;;;;;1.67;0.67;;;;;11.34;68.59;100074.13;5036248;28;50008;-62
2022/12/29 07:59:19;;;;;;;;;1.00;1.00;;;;;11.40;69.04;100090.50;5052012;28;45509;-58
2022/12/29 08:01:44;;;;;;;;;1.67;1.00;;;;;11.40;68.63;100094.94;5050555;28;45490;-63
2022/12/29 08:04:10;;;;;;;;;2.00;1.00;;;;;11.35;69.11;100084.59;5049129;28;45628;-62
2022/12/29 08:06:37;;;;;;;;;1.00;0.00;;;;;11.34;68.76;100100.47;5053753;28;46539;-63
2022/12/29 08:09:03;;;;;;;;;2.00;1.00;;;;;11.36;68.81;100095.97;5054171;28;46200;-63
2022/12/29 08:11:28;;;;;;;;;4.33;4.33;;;;;11.35;68.82;100113.56;5054433;28;45554;-63
2022/12/29 08:13:53;;;;;;;;;2.67;2.00;;;;;11.33;69.25;100099.59;5054103;28;45445;-62
2022/12/29 08:16:19;;;;;;;;;0.00;0.00;;;;;11.39;69.07;100109.88;5053961;28;45626;-63
2022/12/29 08:18:44;;;;;;;;;2.00;1.00;;;;;11.37;67.96;100100.34;5052909;28;45485;-63
2022/12/29 08:21:09;;;;;;;;;0.00;0.00;;;;;11.36;67.02;100103.88;5054049;28;45507;-63
2022/12/29 08:23:35;;;;;;;;;2.00;1.00;;;;;11.34;67.97;100092.56;5054032;28;45660;-63
2022/12/29 08:26:05;;;;;;;;;3.00;1.00;;;;;11.38;67.35;100123.09;5053760;28;45526;-63
2022/12/29 08:28:31;;;;;;;;;1.00;1.00;;;;;11.39;67.14;100119.53;5053989;28;45553;-63
2022/12/29 08:31:01;;;;;;;;;3.00;2.00;;;;;11.39;67.65;100125.69;5054085;28;45463;-63
2022/12/29 08:33:27;;;;;;;;;1.00;1.00;;;;;11.41;67.33;100130.84;5053873;28;45484;-64
2022/12/29 08:35:58;;;;;;;;;2.00;2.00;;;;;11.44;67.43;100122.81;5053742;28;45563;-63
2022/12/29 08:38:23;;;;;;;;;1.00;1.00;;;;;11.44;66.97;100128.06;5052196;28;45568;-63
2022/12/29 08:40:48;;;;;;;;;2.67;1.67;;;;;11.41;67.37;100133.47;5040525;28;45529;-63
2022/12/29 08:43:13;;;;;;;;;4.00;1.67;;;;;11.39;67.06;100130.06;5053870;28;45541;-63
2022/12/29 08:45:39;;;;;;;;;1.33;1.00;;;;;11.40;66.15;100139.69;5053427;28;46397;-63
2022/12/29 08:48:04;;;;;;;;;1.00;1.00;;;;;11.42;67.53;100143.13;5053795;28;45600;-63
2022/12/29 08:50:29;;;;;;;;;1.67;1.33;;;;;11.46;67.07;100155.19;5053478;28;45500;-63
2022/12/29 08:52:55;;;;;;;;;2.33;0.67;;;;;11.46;66.13;100157.84;5053628;28;45572;-63
2022/12/29 08:55:20;;;;;;;;;2.00;1.00;;;;;11.43;66.35;100144.81;5053448;28;45569;-62
2022/12/29 08:57:45;;;;;;;;;1.33;0.67;;;;;11.43;66.03;100155.34;5053638;28;45505;-63
2022/12/29 09:00:11;;;;;;;;;3.33;1.33;;;;;11.44;66.96;100163.16;5052263;28;45537;-63
2022/12/29 09:02:36;;;;;;;;;1.33;1.00;;;;;11.41;66.36;100151.91;5053484;28;45521;-63
2022/12/29 09:05:02;;;;;;;;;1.00;1.00;;;;;11.42;66.34;100158.91;5052002;28;47193;-63
2022/12/29 09:07:27;;;;;;;;;1.67;1.67;;;;;11.44;67.24;100162.31;5053413;28;45485;-63
2022/12/29 09:09:53;;;;;;;;;4.67;1.00;;;;;11.46;66.46;100169.22;5053489;28;45426;-63
2022/12/29 09:12:18;;;;;;;;;3.00;1.33;;;;;11.39;66.47;100152.00;5053544;28;45484;-63
2022/12/29 09:14:46;;;;;;;;;1.00;1.00;;;;;11.50;67.06;100183.13;5053401;28;45643;-63
2022/12/29 09:19:55;;;;;;;;;3.00;1.00;;;;;11.48;66.29;100171.78;5053430;28;45557;-63
2022/12/29 09:22:20;;;;;;;;;6.00;2.00;;;;;11.36;66.20;100162.66;5053255;28;45683;-63
2022/12/29 09:24:46;;;;;;;;;1.67;1.67;;;;;11.50;67.21;100191.84;5052999;28;46268;-63
2022/12/29 09:27:11;;;;;;;;;1.67;1.00;;;;;11.53;66.30;100192.66;5053048;28;45492;-63
2022/12/29 09:29:36;;;;;;;;;2.67;2.33;;;;;11.47;67.23;100202.53;5053013;28;45470;-63
2022/12/29 09:32:02;;;;;;;;;3.00;2.00;;;;;11.49;66.94;100198.03;5053122;28;46006;-63
2022/12/29 09:34:27;;;;;;;;;2.33;2.33;;;;;11.50;66.54;100197.13;5052883;28;45497;-63
2022/12/29 09:36:52;;;;;;;;;3.00;3.00;;;;;11.45;67.60;100182.47;5053124;28;45501;-63
2022/12/29 09:39:18;;;;;;;;;2.67;2.00;;;;;11.49;66.80;100205.94;5048703;28;45526;-62
2022/12/29 09:41:58;;;;;;;;;4.00;0.67;;;;;11.50;67.58;100206.81;5044750;28;45763;-56
2022/12/29 09:44:40;;;;;;;;;2.33;2.00;;;;;11.49;66.96;100200.66;5048110;28;45520;-53
2022/12/29 09:47:10;;;;;;;;;3.00;2.00;;;;;11.49;67.76;100208.56;5039748;28;45933;-67
2022/12/29 09:49:53;;;;;;;;;1.00;1.00;;;;;11.47;67.02;100196.38;5048840;28;45465;-60
2022/12/29 09:52:23;;;;;;;;;0.67;0.67;;;;;11.52;66.56;100206.72;5051315;28;45493;-55
2022/12/29 09:54:56;;;;;;;;;1.00;1.00;;;;;11.51;66.95;100211.16;5052852;28;45549;-55
2022/12/29 09:57:29;;;;;;;;;2.67;0.33;;;;;11.50;66.38;100215.56;5055959;28;45561;-59
2022/12/29 10:00:04;;;;;;;;;2.00;2.00;;;;;11.57;66.69;100228.44;5054376;28;45714;-60
2022/12/29 10:02:37;;;;;;;;;2.00;1.00;;;;;11.57;66.92;100223.19;5055955;28;45520;-59
2022/12/29 10:05:04;;;;;;;;;3.67;2.00;;;;;11.52;66.14;100225.16;5051992;28;46678;-60
2022/12/29 10:07:48;;;;;;;;;2.33;2.00;;;;;11.56;66.22;100232.88;5054238;28;45525;-60
2022/12/29 10:10:52;;;;;;;;;1.67;1.00;;;;;11.58;66.03;100246.81;5055845;28;45525;-60
2022/12/29 10:13:38;;;;;;;;;1.33;1.33;;;;;11.58;65.94;100241.56;5058770;28;45547;-52
2022/12/29 10:16:14;;;;;;;;;2.00;1.00;;;;;11.59;66.10;100237.97;5048215;28;45624;-54
2022/12/29 10:18:40;;;;;;;;;1.33;1.33;;;;;11.59;66.19;100232.72;5047363;28;45439;-71
2022/12/29 10:21:25;;;;;;;;;3.33;1.00;;;;;11.61;66.39;100236.16;5052225;28;45539;-72
2022/12/29 10:23:52;;;;;;;;;6.33;3.00;;;;;11.58;66.10;100230.13;5055970;28;45666;-73
2022/12/29 10:26:33;;;;;;;;;3.67;2.00;;;;;11.50;66.70;100226.09;5055525;28;45681;-72
2022/12/29 10:29:13;;;;;;;;;4.00;2.67;;;;;11.61;65.54;100232.66;5054691;28;45576;-70
2022/12/29 10:31:44;;;;;;;;;1.33;1.33;;;;;11.62;65.55;100232.56;5056055;28;46211;-65
2022/12/29 10:34:28;;;;;;;;;4.00;4.00;;;;;11.62;65.87;100234.38;5042160;28;45471;-54
2022/12/29 10:37:00;;;;;;;;;10.00;9.00;;;;;11.60;66.11;100233.56;5035775;28;46427;-66
2022/12/29 10:39:44;;;;;;;;;1.00;1.00;;;;;11.55;64.35;100211.84;5045507;28;45424;-67
2022/12/29 10:42:19;;;;;;;;;3.00;3.00;;;;;11.64;64.83;100236.00;5052973;28;45528;-67
2022/12/29 10:44:44;;;;;;;;;3.00;3.00;;;;;11.61;64.25;100228.25;5055701;28;45516;-67
2022/12/29 10:47:19;;;;;;;;;6.00;4.00;;;;;11.65;64.58;100232.44;5046671;28;45474;-68
2022/12/29 10:49:47;;;;;;;;;2.33;2.00;;;;;11.68;65.08;100228.81;5053750;28;45537;-69
2022/12/29 10:52:14;;;;;;;;;4.67;3.67;;;;;11.72;64.34;100239.13;5052293;28;45534;-69
2022/12/29 10:54:44;;;;;;;;;3.00;1.67;;;;;11.75;65.01;100234.66;5055661;28;45572;-68
2022/12/29 10:57:20;;;;;;;;;3.33;3.00;;;;;11.82;64.38;100233.44;5053147;28;48156;-65
2022/12/29 10:59:45;;;;;;;;;2.67;2.67;;;;;11.85;64.10;100230.69;5055116;28;45489;-67
2022/12/29 11:02:11;;;;;;;;;13.00;13.00;;;;;11.87;63.89;100234.97;5053898;28;45520;-68
2022/12/29 11:05:21;;;;;;;;;5.33;4.33;;;;;11.88;63.90;100233.19;5054634;28;45513;-54
2022/12/29 11:07:49;;;;;;;;;3.67;1.67;;;;;11.88;62.91;100231.41;5044709;28;45583;-57
2022/12/29 11:10:30;;;;;;;;;3.33;2.33;;;;;11.87;63.89;100227.06;5044692;28;45486;-57
2022/12/29 11:13:17;;;;;;;;;2.33;2.33;;;;;11.75;63.41;100234.66;5052754;28;45537;-56
2022/12/29 11:15:44;;;;;;;;;4.00;3.00;;;;;11.81;64.03;100237.00;5055087;28;45589;-57
2022/12/29 11:18:21;;;;;;;;;2.67;2.00;;;;;11.80;63.93;100241.44;5054665;28;47191;-58
2022/12/29 11:20:49;;;;;;;;;5.00;4.00;;;;;11.81;63.53;100251.03;5054629;28;45485;-57
2022/12/29 11:23:34;;;;;;;;;4.00;3.00;;;;;11.81;63.86;100245.75;5054847;28;45454;-57
2022/12/29 11:26:21;;;;;;;;;4.67;2.33;;;;;11.82;63.08;100244.84;5054709;28;45543;-56
2022/12/29 11:29:12;;;;;;;;;5.67;4.00;;;;;11.84;63.64;100237.72;5053565;28;46425;-56
2022/12/29 11:31:45;;;;;;;;;2.00;2.00;;;;;11.82;63.27;100230.78;5050105;28;45556;-56
2022/12/29 11:34:23;;;;;;;;;2.00;2.00;;;;;11.90;63.45;100236.59;5054792;28;45417;-57
2022/12/29 11:36:53;;;;;;;;;5.00;4.33;;;;;11.93;61.93;100252.28;5054062;28;45639;-56
2022/12/29 11:39:28;;;;;;;;;1.00;1.00;;;;;11.90;61.53;100241.88;5045856;28;45454;-56
2022/12/29 11:41:54;;;;;;;;;3.67;3.67;;;;;11.85;62.43;100223.63;5048714;28;45555;-56
2022/12/29 11:44:20;;;;;;;;;3.00;2.00;;;;;11.91;62.22;100241.81;5054499;28;45536;-57
2022/12/29 11:46:50;;;;;;;;;5.00;4.00;;;;;11.96;61.76;100246.03;5054019;28;46030;-56
2022/12/29 11:49:22;;;;;;;;;5.33;3.00;;;;;12.03;62.86;100237.72;5054533;28;45458;-57
2022/12/29 11:51:50;;;;;;;;;6.00;3.33;;;;;12.08;62.64;100233.09;5052846;28;45667;-56
2022/12/29 11:54:21;;;;;;;;;8.67;4.00;;;;;12.13;62.30;100231.09;5053821;28;45562;-56
2022/12/29 11:56:48;;;;;;;;;4.33;2.33;;;;;12.19;61.76;100237.00;5069795;27;45402;-57
2022/12/29 11:59:37;;;;;;;;;3.00;3.00;;;;;12.13;60.42;100214.44;5048176;28;45539;-56
2022/12/29 12:02:32;;;;;;;;;6.00;3.00;;;;;12.11;59.31;100218.91;5042123;28;45509;-59
2022/12/29 12:05:14;;;;;;;;;2.33;2.33;;;;;12.11;59.96;100216.28;5043618;28;45471;-58
2022/12/29 12:07:44;;;;;;;;;3.00;2.00;;;;;12.13;59.40;100202.09;5052556;28;45476;-58
2022/12/29 12:10:31;;;;;;;;;3.67;3.33;;;;;12.20;59.73;100210.59;5052973;28;45521;-59
2022/12/29 12:13:08;;;;;;;;;6.00;4.00;;;;;12.21;60.11;100214.06;5054386;28;45481;-59
2022/12/29 12:15:46;;;;;;;;;12.33;9.00;;;;;12.20;60.18;100213.22;5055666;28;45457;-58